Time;durP1;ratioP1;P1;durP2;ratioP2;P2;SDS_P1;SDS_P2;PMS_P1;PMS_P2;Temp;Humidity;BMP_temperature;BMP_pressure;BME280_temperature;BME280_humidity;BME280_pressure;Samples;Min_cycle;Max_cycle;Signal;HPM_P1;HPM_P2
2022/01/25 00:10:42;;;;;;;16.47;12.30;;;;;;;;;;5014803;28;20218;-87
2022/01/25 00:24:47;;;;;;;14.73;11.40;;;;;;;;;;5011470;28;20217;-87
2022/01/25 00:27:37;;;;;;;18.70;12.33;;;;;;;;;;5015305;28;20210;-87
2022/01/25 00:30:23;;;;;;;14.83;11.27;;;;;;;;;;5009522;28;20222;-87
2022/01/25 00:32:51;;;;;;;15.37;11.90;;;;;;;;;;5016248;28;20230;-87
2022/01/25 00:35:21;;;;;;;17.23;12.77;;;;;;;;;;5015748;28;20226;-87
2022/01/25 00:37:48;;;;;;;16.30;11.57;;;;;;;;;;5016140;28;20203;-87
2022/01/25 00:40:17;;;;;;;14.17;10.93;;;;;;;;;;5017032;28;20210;-87
2022/01/25 00:42:44;;;;;;;18.43;12.40;;;;;;;;;;5016441;28;20211;-87
2022/01/25 00:45:14;;;;;;;16.70;12.07;;;;;;;;;;5017226;28;20202;-88
2022/01/25 00:47:46;;;;;;;15.90;12.20;;;;;;;;;;5029765;28;20241;-88
2022/01/25 00:50:15;;;;;;;16.80;13.03;;;;;;;;;;5035221;28;20210;-88
2022/01/25 00:55:43;;;;;;;22.93;13.40;;;;;;;;;;5123948;28;20201;-87
2022/01/25 00:58:10;;;;;;;20.70;14.00;;;;;;;;;;5124510;28;20223;-87
2022/01/25 01:00:38;;;;;;;20.07;13.50;;;;;;;;;;5116809;28;20245;-87
2022/01/25 01:03:05;;;;;;;20.27;13.30;;;;;;;;;;5132322;28;20206;-86
2022/01/25 01:05:32;;;;;;;18.10;13.13;;;;;;;;;;5125403;28;20207;-87
2022/01/25 01:10:52;;;;;;;22.57;14.17;;;;;;;;;;5119619;22;20224;-86
2022/01/25 01:51:33;;;;;;;21.90;15.03;;;;;;;;;;5027262;28;20327;-88
2022/01/25 01:54:36;;;;;;;23.67;16.17;;;;;;;;;;5029226;28;20202;-87
2022/01/25 01:57:46;;;;;;;21.77;14.63;;;;;;;;;;5028836;28;20210;-87
2022/01/25 02:00:31;;;;;;;;;;;;;;;;;;;;;
2022/01/25 02:05:57;;;;;;;23.10;15.57;;;;;;;;;;5006266;28;20215;-88
2022/01/25 02:08:39;;;;;;;23.40;16.30;;;;;;;;;;5011858;28;20300;-88
2022/01/25 02:14:07;;;;;;;20.67;15.17;;;;;;;;;;5015498;28;20214;-88
2022/01/25 02:16:56;;;;;;;22.50;15.63;;;;;;;;;;5016974;28;20210;-89
2022/01/25 02:25:13;;;;;;;20.77;14.53;;;;;;;;;;5014274;28;20197;-85
2022/01/25 02:27:51;;;;;;;20.17;14.77;;;;;;;;;;5015140;28;20206;-85
2022/01/25 02:30:58;;;;;;;21.40;14.37;;;;;;;;;;5015585;28;20695;-86
2022/01/25 02:33:52;;;;;;;20.80;14.60;;;;;;;;;;5002502;28;20210;-86
2022/01/25 02:45:31;;;;;;;20.40;14.53;;;;;;;;;;4972606;28;20292;-86
2022/01/25 02:50:44;;;;;;;21.83;14.37;;;;;;;;;;5015631;28;20238;-86
2022/01/25 02:53:12;;;;;;;23.17;15.63;;;;;;;;;;5015262;28;20273;-85
2022/01/25 02:55:43;;;;;;;21.63;15.20;;;;;;;;;;5014909;28;20286;-86
2022/01/25 02:58:11;;;;;;;19.53;14.33;;;;;;;;;;5015141;28;20207;-86
2022/01/25 03:00:39;;;;;;;17.63;13.73;;;;;;;;;;5016139;28;20238;-84
2022/01/25 03:03:09;;;;;;;19.53;14.37;;;;;;;;;;5015939;28;20203;-86
2022/01/25 03:05:37;;;;;;;18.20;13.27;;;;;;;;;;5014334;28;20265;-86
2022/01/25 03:08:04;;;;;;;17.63;13.80;;;;;;;;;;5017954;28;20270;-86
2022/01/25 03:10:36;;;;;;;18.63;13.63;;;;;;;;;;5016932;28;20237;-86
2022/01/25 03:13:09;;;;;;;17.63;13.13;;;;;;;;;;5015216;28;20226;-84
2022/01/25 03:15:55;;;;;;;21.03;13.97;;;;;;;;;;5014097;28;20206;-87
2022/01/25 03:18:43;;;;;;;21.83;14.63;;;;;;;;;;5014524;28;20226;-86
2022/01/25 03:21:19;;;;;;;18.87;13.63;;;;;;;;;;5009737;28;20209;-83
2022/01/25 03:23:47;;;;;;;18.87;13.33;;;;;;;;;;5015322;28;20214;-86
2022/01/25 03:26:14;;;;;;;20.47;13.53;;;;;;;;;;5014949;28;20294;-85
2022/01/25 03:28:41;;;;;;;17.43;12.77;;;;;;;;;;5008216;28;20249;-86
2022/01/25 03:31:10;;;;;;;17.23;12.87;;;;;;;;;;5014073;28;20245;-86
2022/01/25 03:33:39;;;;;;;19.67;12.83;;;;;;;;;;5015211;28;20210;-86
2022/01/25 03:36:07;;;;;;;20.17;13.73;;;;;;;;;;5014025;28;20261;-86
2022/01/25 03:38:42;;;;;;;19.80;13.83;;;;;;;;;;5013811;28;20226;-86
2022/01/25 03:41:10;;;;;;;18.93;13.70;;;;;;;;;;5014116;28;20305;-86
2022/01/25 03:43:53;;;;;;;17.93;13.37;;;;;;;;;;5013564;28;20214;-86
2022/01/25 03:46:42;;;;;;;19.83;14.00;;;;;;;;;;5013608;28;20210;-86
2022/01/25 03:51:58;;;;;;;20.90;13.13;;;;;;;;;;5014430;28;20237;-87
2022/01/25 03:54:25;;;;;;;20.20;13.40;;;;;;;;;;5013799;28;20242;-86
2022/01/25 03:56:55;;;;;;;18.47;12.77;;;;;;;;;;5013302;28;20301;-85
2022/01/25 03:59:34;;;;;;;18.93;13.23;;;;;;;;;;5012463;28;20317;-86
2022/01/25 04:02:12;;;;;;;19.03;12.90;;;;;;;;;;5014761;28;20205;-86
2022/01/25 04:04:43;;;;;;;18.60;12.97;;;;;;;;;;5008741;28;20202;-85
2022/01/25 04:07:12;;;;;;;18.40;13.13;;;;;;;;;;5013356;28;20200;-87
2022/01/25 04:09:41;;;;;;;19.23;13.00;;;;;;;;;;5026948;28;20226;-85
2022/01/25 04:12:13;;;;;;;20.30;14.13;;;;;;;;;;5011570;28;20288;-83
2022/01/25 04:14:43;;;;;;;19.67;13.77;;;;;;;;;;5013307;28;20203;-87
2022/01/25 04:17:17;;;;;;;20.20;13.23;;;;;;;;;;5027118;28;20266;-86
2022/01/25 04:19:57;;;;;;;19.03;13.20;;;;;;;;;;5013179;28;20240;-87
2022/01/25 04:28:00;;;;;;;17.80;13.43;;;;;;;;;;5011804;28;20206;-86
2022/01/25 04:30:28;;;;;;;19.53;13.87;;;;;;;;;;5012522;28;20210;-86
2022/01/25 04:33:26;;;;;;;18.57;12.97;;;;;;;;;;5013608;28;20229;-86
2022/01/25 04:36:09;;;;;;;20.33;13.03;;;;;;;;;;5005091;28;20206;-85
2022/01/25 04:49:44;;;;;;;20.67;14.47;;;;;;;;;;5013189;28;20280;-86
2022/01/25 04:52:16;;;;;;;21.43;14.47;;;;;;;;;;5013081;28;20249;-87
2022/01/25 04:54:52;;;;;;;20.70;14.50;;;;;;;;;;5012728;28;20198;-85
2022/01/25 04:57:32;;;;;;;18.57;13.97;;;;;;;;;;5012589;28;20218;-85
2022/01/25 05:00:04;;;;;;;18.97;13.70;;;;;;;;;;5012950;28;20265;-85
2022/01/25 05:02:42;;;;;;;20.10;13.60;;;;;;;;;;5014706;28;20206;-86
2022/01/25 05:05:33;;;;;;;19.10;13.20;;;;;;;;;;5014147;28;20202;-86
2022/01/25 05:08:17;;;;;;;17.87;13.53;;;;;;;;;;5012517;28;20206;-83
2022/01/25 05:10:53;;;;;;;19.73;13.70;;;;;;;;;;5010115;28;20201;-86
2022/01/25 05:13:40;;;;;;;20.83;14.17;;;;;;;;;;5012783;28;20740;-85
2022/01/25 05:16:15;;;;;;;25.17;14.97;;;;;;;;;;5007542;28;20224;-86
2022/01/25 05:18:46;;;;;;;21.33;14.47;;;;;;;;;;5013400;28;20222;-84
2022/01/25 05:24:20;;;;;;;19.47;14.93;;;;;;;;;;5015378;28;20357;-86
2022/01/25 05:26:55;;;;;;;21.30;15.10;;;;;;;;;;5014130;28;20230;-86
2022/01/25 05:29:29;;;;;;;20.37;15.10;;;;;;;;;;5008570;28;20260;-86
2022/01/25 05:32:04;;;;;;;18.23;13.83;;;;;;;;;;5013824;28;20204;-86
2022/01/25 05:34:41;;;;;;;20.40;15.20;;;;;;;;;;5012863;28;20233;-86
2022/01/25 05:37:08;;;;;;;22.23;15.60;;;;;;;;;;5012895;28;20214;-86
2022/01/25 05:39:45;;;;;;;21.73;15.67;;;;;;;;;;5016590;28;20215;-86
2022/01/25 05:45:57;;;;;;;20.53;14.27;;;;;;;;;;4972188;28;20209;-87
2022/01/25 05:48:29;;;;;;;21.57;15.07;;;;;;;;;;5015777;28;20222;-84
2022/01/25 05:50:57;;;;;;;21.50;14.50;;;;;;;;;;5012214;28;20203;-86
2022/01/25 05:53:26;;;;;;;19.97;14.20;;;;;;;;;;5016965;28;20230;-85
2022/01/25 05:59:26;;;;;;;;;;;;;;;;;;;;;
2022/01/25 06:01:56;;;;;;;21.97;14.97;;;;;;;;;;4937595;29;20209;-85
2022/01/25 06:04:32;;;;;;;24.27;16.33;;;;;;;;;;4979169;28;20210;-85
2022/01/25 06:07:06;;;;;;;21.63;15.07;;;;;;;;;;5017305;28;20245;-85
2022/01/25 06:09:37;;;;;;;24.60;16.50;;;;;;;;;;5012401;28;20260;-85
2022/01/25 06:12:05;;;;;;;23.77;16.03;;;;;;;;;;5018469;28;20214;-84
2022/01/25 06:14:48;;;;;;;21.57;14.90;;;;;;;;;;5017519;28;20233;-85
2022/01/25 06:17:22;;;;;;;21.13;14.40;;;;;;;;;;5017497;28;20209;-86
2022/01/25 06:19:55;;;;;;;24.13;15.90;;;;;;;;;;5017179;28;20230;-85
2022/01/25 06:22:23;;;;;;;22.17;15.67;;;;;;;;;;5017187;28;20210;-84
2022/01/25 06:25:10;;;;;;;25.20;16.30;;;;;;;;;;5020676;28;20203;-82
2022/01/25 06:30:36;;;;;;;20.30;14.37;;;;;;;;;;5014176;28;20221;-86
2022/01/25 06:33:17;;;;;;;19.70;14.87;;;;;;;;;;5019158;28;20246;-85
2022/01/25 06:36:02;;;;;;;21.53;14.57;;;;;;;;;;5016849;28;20205;-85
2022/01/25 06:38:30;;;;;;;22.10;15.47;;;;;;;;;;5015591;28;20229;-85
2022/01/25 06:40:59;;;;;;;23.97;16.00;;;;;;;;;;5016564;28;20210;-86
2022/01/25 06:43:29;;;;;;;26.77;16.63;;;;;;;;;;5018579;28;20209;-86
2022/01/25 06:46:10;;;;;;;22.53;15.33;;;;;;;;;;5023889;28;20198;-85
2022/01/25 06:51:44;;;;;;;20.83;15.10;;;;;;;;;;4996822;28;20212;-86
2022/01/25 06:54:11;;;;;;;23.77;15.77;;;;;;;;;;5029523;28;20234;-85
2022/01/25 06:57:01;;;;;;;24.90;16.33;;;;;;;;;;5031972;28;20222;-84
2022/01/25 06:59:31;;;;;;;23.47;16.70;;;;;;;;;;5026543;28;20230;-86
2022/01/25 07:01:59;;;;;;;22.47;15.50;;;;;;;;;;5021396;28;20270;-85
2022/01/25 07:04:38;;;;;;;23.97;14.87;;;;;;;;;;5017792;28;20223;-85
2022/01/25 07:07:41;;;;;;;21.93;14.80;;;;;;;;;;5020656;28;20240;-86
2022/01/25 07:10:18;;;;;;;21.47;14.70;;;;;;;;;;5018595;28;20239;-88
2022/01/25 07:15:47;;;;;;;22.50;15.07;;;;;;;;;;5014465;28;20241;-87
2022/01/25 07:18:24;;;;;;;23.60;15.43;;;;;;;;;;5028067;28;20274;-87
2022/01/25 07:21:06;;;;;;;24.27;15.13;;;;;;;;;;5008711;28;20207;-86
2022/01/25 07:23:34;;;;;;;21.97;15.33;;;;;;;;;;5010505;28;20207;-86
2022/01/25 07:29:28;;;;;;;22.83;16.50;;;;;;;;;;4953034;28;20227;-87
2022/01/25 07:32:21;;;;;;;22.90;16.70;;;;;;;;;;4960782;28;20356;-86
2022/01/25 07:34:57;;;;;;;23.03;16.43;;;;;;;;;;5013678;28;20207;-86
2022/01/25 07:37:31;;;;;;;24.73;16.20;;;;;;;;;;5015114;28;20210;-87
2022/01/25 07:40:06;;;;;;;25.43;16.23;;;;;;;;;;5010868;28;20253;-88
2022/01/25 07:42:40;;;;;;;24.97;16.57;;;;;;;;;;5015784;28;20230;-87
2022/01/25 07:45:21;;;;;;;24.07;16.33;;;;;;;;;;5015830;28;20202;-87
2022/01/25 07:48:00;;;;;;;27.40;16.70;;;;;;;;;;5014447;28;20205;-85
2022/01/25 07:50:30;;;;;;;27.43;17.20;;;;;;;;;;5013714;28;20202;-86
2022/01/25 07:56:35;;;;;;;22.57;16.20;;;;;;;;;;5000829;28;20211;-86
2022/01/25 07:59:21;;;;;;;25.27;17.53;;;;;;;;;;5019599;28;20261;-86
2022/01/25 08:01:56;;;;;;;27.83;17.87;;;;;;;;;;5016559;28;20238;-87
2022/01/25 08:04:30;;;;;;;23.63;16.60;;;;;;;;;;5016276;28;20241;-86
2022/01/25 08:07:20;;;;;;;25.27;17.53;;;;;;;;;;5015724;28;20206;-87
2022/01/25 08:10:05;;;;;;;26.47;17.90;;;;;;;;;;5005715;28;20684;-87
2022/01/25 08:12:56;;;;;;;27.07;17.27;;;;;;;;;;5017206;28;20245;-85
2022/01/25 08:15:25;;;;;;;28.13;18.20;;;;;;;;;;5016063;28;20213;-87
2022/01/25 08:17:54;;;;;;;27.73;19.70;;;;;;;;;;5018125;28;20206;-86
2022/01/25 08:20:22;;;;;;;29.03;19.43;;;;;;;;;;5017886;28;20312;-87
2022/01/25 08:22:51;;;;;;;28.97;19.97;;;;;;;;;;5018567;28;20292;-87
2022/01/25 08:25:19;;;;;;;28.50;19.57;;;;;;;;;;5018323;28;20220;-86
2022/01/25 08:27:55;;;;;;;33.87;21.20;;;;;;;;;;5013771;28;20268;-84
2022/01/25 08:30:23;;;;;;;27.83;19.83;;;;;;;;;;5015191;28;20257;-85
2022/01/25 08:32:52;;;;;;;27.70;20.07;;;;;;;;;;5015051;28;20203;-85
2022/01/25 08:35:19;;;;;;;27.47;19.17;;;;;;;;;;5000192;28;20261;-87
2022/01/25 08:38:12;;;;;;;28.70;18.90;;;;;;;;;;5011729;28;20277;-89
2022/01/25 08:40:46;;;;;;;30.57;18.63;;;;;;;;;;5007527;28;20290;-90
2022/01/25 08:43:19;;;;;;;25.17;17.30;;;;;;;;;;5011635;28;20230;-87
2022/01/25 08:45:47;;;;;;;24.87;18.57;;;;;;;;;;5007463;28;20230;-86
2022/01/25 08:48:20;;;;;;;27.33;17.73;;;;;;;;;;5010526;28;20202;-86
2022/01/25 08:50:47;;;;;;;28.30;19.50;;;;;;;;;;5004375;28;20271;-87
2022/01/25 08:53:15;;;;;;;27.13;18.23;;;;;;;;;;5027428;28;20238;-87
2022/01/25 08:55:51;;;;;;;28.30;18.73;;;;;;;;;;5032792;28;20205;-88
2022/01/25 08:58:22;;;;;;;29.20;18.53;;;;;;;;;;5018550;28;20226;-85
2022/01/25 09:00:52;;;;;;;26.07;18.77;;;;;;;;;;5014239;28;20229;-87
2022/01/25 09:03:24;;;;;;;26.00;18.90;;;;;;;;;;5014382;28;20203;-84
2022/01/25 09:05:54;;;;;;;26.67;19.40;;;;;;;;;;5013473;28;20293;-88
2022/01/25 09:08:48;;;;;;;24.10;17.83;;;;;;;;;;5013124;28;20246;-88
2022/01/25 09:11:23;;;;;;;26.57;18.57;;;;;;;;;;5013082;28;20194;-87
2022/01/25 09:13:53;;;;;;;25.13;18.73;;;;;;;;;;5012193;28;20245;-87
2022/01/25 09:16:45;;;;;;;26.70;20.30;;;;;;;;;;5017968;28;20217;-88
2022/01/25 09:19:16;;;;;;;26.20;18.67;;;;;;;;;;5018415;28;20234;-87
2022/01/25 09:21:57;;;;;;;29.67;19.27;;;;;;;;;;5016349;28;20206;-86
2022/01/25 09:24:43;;;;;;;26.07;19.30;;;;;;;;;;5005022;28;20206;-87
2022/01/25 09:27:24;;;;;;;27.00;19.10;;;;;;;;;;5009802;28;20240;-86
2022/01/25 09:29:56;;;;;;;27.30;18.20;;;;;;;;;;5015370;28;20226;-88
2022/01/25 09:32:25;;;;;;;26.23;19.87;;;;;;;;;;5004192;28;20198;-86
2022/01/25 09:34:56;;;;;;;28.00;19.90;;;;;;;;;;5012767;28;20277;-86
2022/01/25 09:37:35;;;;;;;26.93;19.37;;;;;;;;;;5016645;28;20199;-87
2022/01/25 09:40:07;;;;;;;25.23;18.57;;;;;;;;;;5012164;28;20261;-86
2022/01/25 09:42:34;;;;;;;29.17;21.40;;;;;;;;;;5019461;28;20206;-84
2022/01/25 09:51:05;;;;;;;29.00;20.33;;;;;;;;;;5002688;28;20281;-87
2022/01/25 09:53:44;;;;;;;33.73;22.53;;;;;;;;;;5017076;28;20284;-85
2022/01/25 09:56:12;;;;;;;29.00;21.33;;;;;;;;;;5019986;28;20206;-86
2022/01/25 10:02:04;;;;;;;27.73;21.13;;;;;;;;;;5010918;28;20194;-87
2022/01/25 10:04:49;;;;;;;28.00;20.27;;;;;;;;;;5012154;28;20230;-88
2022/01/25 10:07:19;;;;;;;30.23;22.00;;;;;;;;;;5011172;28;20199;-90
2022/01/25 10:09:57;;;;;;;32.13;21.50;;;;;;;;;;5027343;28;20233;-88
2022/01/25 10:12:39;;;;;;;31.23;22.40;;;;;;;;;;5016153;28;20217;-87
2022/01/25 10:15:33;;;;;;;30.93;23.07;;;;;;;;;;5015447;28;20233;-87
2022/01/25 10:26:57;;;;;;;30.77;22.93;;;;;;;;;;5008533;28;20210;-86
2022/01/25 10:29:29;;;;;;;30.37;23.20;;;;;;;;;;5018577;28;20234;-86
2022/01/25 10:38:24;;;;;;;41.00;26.57;;;;;;;;;;5029674;28;20198;-87
2022/01/25 10:41:17;;;;;;;41.87;27.70;;;;;;;;;;5034545;28;20225;-86
2022/01/25 10:47:08;;;;;;;45.70;29.10;;;;;;;;;;5017209;28;20221;-91
2022/01/25 10:49:46;;;;;;;46.77;27.70;;;;;;;;;;5023621;28;20211;-87
2022/01/25 10:52:13;;;;;;;48.23;29.17;;;;;;;;;;5016369;28;20275;-85
2022/01/25 10:57:32;;;;;;;47.47;29.00;;;;;;;;;;5011830;28;20301;-91
2022/01/25 11:00:06;;;;;;;44.77;29.40;;;;;;;;;;5017251;28;20234;-89
2022/01/25 11:02:33;;;;;;;45.80;29.90;;;;;;;;;;5017231;28;20233;-86
2022/01/25 11:05:12;;;;;;;47.53;30.53;;;;;;;;;;5016499;28;20207;-86
2022/01/25 11:07:44;;;;;;;46.50;30.23;;;;;;;;;;5018370;28;20203;-85
2022/01/25 11:10:17;;;;;;;44.27;28.80;;;;;;;;;;5020836;28;20230;-85
2022/01/25 11:13:02;;;;;;;46.47;29.33;;;;;;;;;;5020783;28;20206;-85
2022/01/25 11:15:48;;;;;;;46.73;28.43;;;;;;;;;;5017856;28;20230;-86
2022/01/25 11:18:33;;;;;;;46.20;29.47;;;;;;;;;;5019613;28;20660;-85
2022/01/25 11:21:21;;;;;;;44.77;27.70;;;;;;;;;;5014283;28;20241;-86
2022/01/25 11:23:53;;;;;;;45.17;28.93;;;;;;;;;;5019384;28;20207;-86
2022/01/25 11:30:04;;;;;;;48.13;28.83;;;;;;;;;;4920165;29;20286;-86
2022/01/25 11:35:55;;;;;;;42.83;27.63;;;;;;;;;;4912551;29;20224;-84
2022/01/25 11:38:32;;;;;;;44.00;28.77;;;;;;;;;;4912379;29;20598;-86
2022/01/25 11:41:00;;;;;;;49.37;29.13;;;;;;;;;;4917404;29;20284;-86
2022/01/25 11:43:27;;;;;;;43.67;28.83;;;;;;;;;;4918991;29;20202;-86
2022/01/25 11:46:05;;;;;;;47.67;29.20;;;;;;;;;;4920163;29;20209;-87
2022/01/25 11:48:46;;;;;;;48.20;30.13;;;;;;;;;;4917682;29;20253;-86
2022/01/25 11:51:18;;;;;;;46.97;29.10;;;;;;;;;;4917377;29;20260;-85
2022/01/25 11:59:17;;;;;;;46.07;28.33;;;;;;;;;;5094938;22;20248;-89
2022/01/25 12:01:55;;;;;;;46.30;29.03;;;;;;;;;;5074315;28;20204;-88
2022/01/25 12:04:41;;;;;;;45.60;28.90;;;;;;;;;;5075749;28;20200;-88
2022/01/25 12:12:18;;;;;;;43.63;27.73;;;;;;;;;;5052690;28;20300;-88
2022/01/25 12:14:48;;;;;;;43.47;27.90;;;;;;;;;;5053879;28;20221;-86
2022/01/25 12:17:20;;;;;;;42.27;26.87;;;;;;;;;;5053821;28;20229;-88
2022/01/25 12:19:50;;;;;;;43.37;27.73;;;;;;;;;;5053278;28;20209;-88
2022/01/25 12:22:33;;;;;;;41.33;26.30;;;;;;;;;;5054766;28;20212;-86
2022/01/25 12:25:08;;;;;;;38.80;25.63;;;;;;;;;;5052794;28;20201;-86
2022/01/25 12:27:52;;;;;;;39.63;25.83;;;;;;;;;;5049267;28;20228;-86
2022/01/25 12:30:21;;;;;;;42.60;27.77;;;;;;;;;;5052860;28;20207;-85
2022/01/25 12:33:01;;;;;;;40.67;26.30;;;;;;;;;;5053379;28;20217;-86
2022/01/25 12:35:42;;;;;;;45.10;26.67;;;;;;;;;;5051303;28;20212;-86
2022/01/25 12:38:11;;;;;;;41.90;26.60;;;;;;;;;;5052393;28;20226;-86
2022/01/25 12:40:40;;;;;;;40.17;26.17;;;;;;;;;;5054223;28;20201;-87
2022/01/25 12:43:11;;;;;;;39.17;26.77;;;;;;;;;;5053595;28;20197;-87
2022/01/25 12:45:44;;;;;;;42.87;27.47;;;;;;;;;;5051084;28;20201;-85
2022/01/25 12:48:13;;;;;;;43.40;26.70;;;;;;;;;;5053191;28;20221;-85
2022/01/25 12:50:42;;;;;;;44.10;26.90;;;;;;;;;;5053985;28;20215;-88
2022/01/25 12:53:13;;;;;;;42.87;27.50;;;;;;;;;;5051477;28;20197;-85
2022/01/25 12:55:42;;;;;;;43.83;27.40;;;;;;;;;;5052655;28;20263;-87
2022/01/25 12:58:11;;;;;;;43.47;26.87;;;;;;;;;;5047983;28;20232;-87
2022/01/25 13:00:44;;;;;;;41.87;26.33;;;;;;;;;;5051260;28;20259;-87
2022/01/25 13:03:21;;;;;;;41.77;26.20;;;;;;;;;;5048190;28;20205;-85
2022/01/25 13:05:52;;;;;;;41.40;27.03;;;;;;;;;;5051273;28;20201;-86
2022/01/25 13:08:26;;;;;;;46.23;28.00;;;;;;;;;;5051438;28;20287;-86
2022/01/25 13:10:57;;;;;;;41.33;27.73;;;;;;;;;;5051252;28;20216;-86
2022/01/25 13:13:43;;;;;;;38.83;26.03;;;;;;;;;;5053133;28;20243;-86
2022/01/25 13:16:10;;;;;;;36.03;25.30;;;;;;;;;;5045291;28;20225;-86
2022/01/25 13:18:44;;;;;;;37.80;24.80;;;;;;;;;;5056885;28;20215;-86
2022/01/25 13:21:11;;;;;;;40.10;25.30;;;;;;;;;;5058439;28;20220;-87
2022/01/25 13:26:38;;;;;;;44.87;25.97;;;;;;;;;;5055888;28;20229;-87
2022/01/25 13:32:30;;;;;;;36.60;24.60;;;;;;;;;;5066969;28;20216;-85
2022/01/25 13:35:23;;;;;;;39.97;25.33;;;;;;;;;;5050279;28;20717;-86
2022/01/25 13:38:09;;;;;;;41.23;26.67;;;;;;;;;;5049698;28;20260;-83
2022/01/25 13:40:56;;;;;;;38.10;23.53;;;;;;;;;;5054531;28;20193;-87
2022/01/25 13:45:42;;;;;;;42.60;26.17;;;;;;;;;;5051712;28;20213;-84
2022/01/25 13:46:22;;;;;;;41.27;26.37;;;;;;;;;;5055605;28;20205;-87
2022/01/25 13:49:02;;;;;;;40.83;25.30;;;;;;;;;;5051916;28;20201;-85
2022/01/25 13:51:31;;;;;;;46.27;26.43;;;;;;;;;;5054044;28;20197;-86
2022/01/25 13:53:59;;;;;;;39.87;25.57;;;;;;;;;;5054578;28;20217;-86
2022/01/25 13:56:30;;;;;;;44.70;26.20;;;;;;;;;;5054327;28;20225;-86
2022/01/25 13:59:02;;;;;;;41.40;26.67;;;;;;;;;;5057883;28;20205;-84
2022/01/25 14:01:38;;;;;;;41.90;26.07;;;;;;;;;;5055447;28;20213;-86
2022/01/25 14:04:15;;;;;;;41.30;24.53;;;;;;;;;;5058764;28;20215;-85
2022/01/25 14:06:44;;;;;;;42.50;25.83;;;;;;;;;;5058114;28;20224;-82
2022/01/25 14:09:14;;;;;;;39.77;24.30;;;;;;;;;;5057990;28;20198;-84
2022/01/25 14:23:18;;;;;;;46.23;25.43;;;;;;;;;;5058174;28;20193;-84
2022/01/25 14:26:02;;;;;;;42.37;23.83;;;;;;;;;;5056261;28;20202;-87
2022/01/25 14:28:42;;;;;;;42.17;24.10;;;;;;;;;;5060262;28;20223;-85
2022/01/25 14:31:21;;;;;;;43.70;24.73;;;;;;;;;;5053905;28;20205;-84
2022/01/25 14:33:59;;;;;;;42.23;23.90;;;;;;;;;;5057284;28;20205;-85
2022/01/25 14:36:47;;;;;;;38.40;22.20;;;;;;;;;;5056625;28;20278;-86
2022/01/25 14:39:21;;;;;;;35.80;22.57;;;;;;;;;;5052475;28;20201;-86
2022/01/25 14:41:55;;;;;;;41.53;24.13;;;;;;;;;;5053486;28;20209;-85
2022/01/25 14:44:54;;;;;;;41.97;24.90;;;;;;;;;;5054078;28;20207;-86
2022/01/25 14:47:41;;;;;;;41.70;23.63;;;;;;;;;;5053361;28;20225;-85
2022/01/25 14:50:11;;;;;;;41.30;22.87;;;;;;;;;;5054037;28;20288;-85
2022/01/25 14:53:02;;;;;;;43.33;24.43;;;;;;;;;;5059087;28;20302;-86
2022/01/25 14:59:22;;;;;;;42.97;25.47;;;;;;;;;;5056025;28;20230;-86
2022/01/25 15:01:49;;;;;;;44.90;25.03;;;;;;;;;;5053402;28;20197;-83
2022/01/25 15:04:19;;;;;;;43.23;24.13;;;;;;;;;;5059372;28;20209;-84
2022/01/25 15:06:54;;;;;;;46.93;26.10;;;;;;;;;;5061158;28;20233;-85
2022/01/25 15:09:26;;;;;;;44.50;24.83;;;;;;;;;;5059109;28;20197;-84
2022/01/25 15:12:00;;;;;;;46.87;25.27;;;;;;;;;;5054984;28;20217;-85
2022/01/25 15:14:36;;;;;;;45.17;25.00;;;;;;;;;;5057659;28;20220;-85
2022/01/25 15:17:19;;;;;;;50.50;25.93;;;;;;;;;;5057824;28;20251;-83
2022/01/25 15:22:37;;;;;;;45.07;26.00;;;;;;;;;;5055818;28;20205;-85
2022/01/25 15:25:43;;;;;;;47.43;24.87;;;;;;;;;;5058813;28;20202;-84
2022/01/25 15:28:15;;;;;;;54.13;29.07;;;;;;;;;;5041556;28;20221;-86
2022/01/25 15:33:29;;;;;;;51.10;26.73;;;;;;;;;;5054335;28;20209;-85
2022/01/25 15:35:59;;;;;;;49.10;25.33;;;;;;;;;;5060399;28;20228;-83
2022/01/25 15:42:15;;;;;;;47.03;24.40;;;;;;;;;;5061090;28;20209;-85
2022/01/25 15:45:11;;;;;;;51.30;25.97;;;;;;;;;;5058835;28;20197;-83
2022/01/25 16:13:23;;;;;;;48.33;24.40;;;;;;;;;;5007209;28;20195;-85
2022/01/25 16:19:51;;;;;;;;;;;;;;;;;;;;;
2022/01/25 17:34:01;;;;;;;45.13;24.33;;;;;;;;;;5070273;28;20695;-85
2022/01/25 17:36:35;;;;;;;49.67;26.00;;;;;;;;;;5074113;28;20232;-86
2022/01/25 17:39:02;;;;;;;41.87;22.73;;;;;;;;;;5054659;28;20201;-86
2022/01/25 17:41:33;;;;;;;42.67;23.13;;;;;;;;;;5053921;28;20216;-85
2022/01/25 17:47:21;;;;;;;42.27;23.00;;;;;;;;;;5009495;28;20255;-87
2022/01/25 17:49:57;;;;;;;40.80;22.50;;;;;;;;;;5056241;28;20227;-84
2022/01/25 17:52:45;;;;;;;43.53;24.03;;;;;;;;;;5064028;28;20279;-85
2022/01/25 17:58:08;;;;;;;43.80;22.60;;;;;;;;;;5099328;22;20252;-85
2022/01/25 18:00:37;;;;;;;43.77;24.37;;;;;;;;;;5071315;28;20216;-84
2022/01/25 18:03:04;;;;;;;49.43;26.13;;;;;;;;;;5076898;28;20200;-82
2022/01/25 18:05:32;;;;;;;47.47;24.97;;;;;;;;;;5073889;28;20247;-83
2022/01/25 18:07:59;;;;;;;47.00;24.50;;;;;;;;;;5081479;28;20235;-84
2022/01/25 18:10:27;;;;;;;45.20;23.83;;;;;;;;;;5098374;28;20184;-84
2022/01/25 18:12:55;;;;;;;49.97;25.17;;;;;;;;;;5096404;28;20203;-83
2022/01/25 18:15:22;;;;;;;42.00;24.83;;;;;;;;;;5096012;28;20227;-82
2022/01/25 18:17:54;;;;;;;50.77;25.17;;;;;;;;;;5095651;28;20222;-82
2022/01/25 18:20:23;;;;;;;55.67;26.07;;;;;;;;;;5099196;28;20211;-82
2022/01/25 18:22:56;;;;;;;43.73;23.53;;;;;;;;;;5101592;28;20197;-82
2022/01/25 18:25:54;;;;;;;46.97;25.13;;;;;;;;;;5084265;28;20204;-83
2022/01/25 18:28:23;;;;;;;46.47;25.03;;;;;;;;;;5075809;28;20352;-83
2022/01/25 18:30:50;;;;;;;46.90;24.33;;;;;;;;;;5078017;28;20211;-82
2022/01/25 18:33:19;;;;;;;48.97;25.73;;;;;;;;;;5074880;28;20216;-83
2022/01/25 18:35:47;;;;;;;50.30;24.97;;;;;;;;;;5089252;28;20220;-83
2022/01/25 18:38:15;;;;;;;46.20;24.90;;;;;;;;;;5085417;28;20235;-82
2022/01/25 18:40:42;;;;;;;50.20;25.60;;;;;;;;;;5083223;28;20216;-83
2022/01/25 18:43:10;;;;;;;44.97;25.80;;;;;;;;;;5089364;28;20740;-85
2022/01/25 18:45:38;;;;;;;47.07;25.63;;;;;;;;;;5074626;28;20270;-83
2022/01/25 18:48:06;;;;;;;47.60;25.93;;;;;;;;;;5080006;28;20217;-83
2022/01/25 18:50:35;;;;;;;47.77;25.27;;;;;;;;;;5083857;28;20203;-87
2022/01/25 18:53:05;;;;;;;51.70;27.47;;;;;;;;;;5074150;28;20279;-84
2022/01/25 18:55:44;;;;;;;50.43;26.77;;;;;;;;;;5083745;28;20197;-82
2022/01/25 18:58:14;;;;;;;53.60;27.40;;;;;;;;;;5102574;28;20235;-85
2022/01/25 19:00:42;;;;;;;48.87;26.27;;;;;;;;;;5108568;28;20293;-85
2022/01/25 19:03:09;;;;;;;46.40;26.30;;;;;;;;;;5112284;28;20219;-84
2022/01/25 19:05:55;;;;;;;45.43;26.20;;;;;;;;;;5121011;28;20199;-86
2022/01/25 19:08:31;;;;;;;48.60;26.13;;;;;;;;;;5119009;28;20317;-84
2022/01/25 19:11:02;;;;;;;50.00;25.97;;;;;;;;;;5111493;28;20211;-84
2022/01/25 19:13:32;;;;;;;48.57;26.47;;;;;;;;;;5109866;28;20249;-85
2022/01/25 19:16:25;;;;;;;49.97;25.97;;;;;;;;;;5114739;28;20247;-87
2022/01/25 19:18:57;;;;;;;49.10;24.27;;;;;;;;;;5117571;28;20284;-83
2022/01/25 19:24:41;;;;;;;49.97;27.50;;;;;;;;;;5053056;28;20212;-87
2022/01/25 19:30:01;;;;;;;42.60;24.87;;;;;;;;;;5041362;28;20224;-88
2022/01/25 19:32:28;;;;;;;46.63;24.77;;;;;;;;;;5046088;28;20220;-84
2022/01/25 19:35:07;;;;;;;46.20;26.27;;;;;;;;;;5031687;28;20236;-85
2022/01/25 19:37:36;;;;;;;47.53;26.53;;;;;;;;;;5038015;28;20229;-85
2022/01/25 19:43:13;;;;;;;47.27;26.17;;;;;;;;;;5052779;28;20228;-85
2022/01/25 19:45:41;;;;;;;49.57;25.90;;;;;;;;;;5055445;28;20197;-83
2022/01/25 19:48:08;;;;;;;49.97;26.70;;;;;;;;;;5057030;28;20214;-84
2022/01/25 19:50:41;;;;;;;59.07;30.00;;;;;;;;;;5054174;28;20213;-85
2022/01/25 19:53:15;;;;;;;52.57;29.23;;;;;;;;;;5058976;28;20190;-85
2022/01/25 19:55:59;;;;;;;55.77;29.13;;;;;;;;;;5057103;28;20204;-84
2022/01/25 19:58:36;;;;;;;55.13;28.83;;;;;;;;;;5056106;28;20209;-84
2022/01/25 20:01:07;;;;;;;54.27;29.07;;;;;;;;;;5083725;28;20203;-84
2022/01/25 20:03:42;;;;;;;52.40;27.73;;;;;;;;;;5117040;28;20202;-84
2022/01/25 20:06:12;;;;;;;57.93;30.07;;;;;;;;;;5117282;28;20268;-84
2022/01/25 20:08:42;;;;;;;55.23;27.70;;;;;;;;;;5115799;28;20245;-84
2022/01/25 20:11:16;;;;;;;53.57;29.57;;;;;;;;;;5115497;28;20217;-85
2022/01/25 20:13:47;;;;;;;59.30;30.27;;;;;;;;;;5131123;28;20211;-84
2022/01/25 20:16:26;;;;;;;55.07;30.53;;;;;;;;;;5110843;28;20230;-84
2022/01/25 20:18:53;;;;;;;58.70;30.87;;;;;;;;;;5098186;28;20243;-84
2022/01/25 20:21:31;;;;;;;59.80;30.57;;;;;;;;;;5099501;28;20223;-85
2022/01/25 20:24:08;;;;;;;57.10;31.87;;;;;;;;;;5101213;28;20220;-85
2022/01/25 20:26:40;;;;;;;59.27;30.33;;;;;;;;;;5098498;28;20278;-82
2022/01/25 20:29:25;;;;;;;59.60;30.50;;;;;;;;;;5103096;28;20250;-85
2022/01/25 20:31:53;;;;;;;59.00;30.73;;;;;;;;;;5094391;28;20219;-83
2022/01/25 20:34:43;;;;;;;59.50;30.10;;;;;;;;;;5100607;28;20205;-83